Time;durP1;ratioP1;P1;durP2;ratioP2;P2;SDS_P1;SDS_P2;PMS_P1;PMS_P2;Temp;Humidity;BMP_temperature;BMP_pressure;BME280_temperature;BME280_humidity;BME280_pressure;Samples;Min_cycle;Max_cycle;Signal;HPM_P1;HPM_P2
2023/09/27 00:00:42;;;;;;;12.32;6.85;;;15.60;99.90;;;;;;5018775;28;20049;-81
2023/09/27 00:03:07;;;;;;;10.68;6.45;;;15.60;99.90;;;;;;5002450;28;20484;-80
2023/09/27 00:05:34;;;;;;;11.93;6.95;;;15.60;99.90;;;;;;4987274;28;20125;-80
2023/09/27 00:08:00;;;;;;;12.77;6.97;;;15.60;99.90;;;;;;4956687;28;20060;-80
2023/09/27 00:10:27;;;;;;;12.32;6.88;;;15.60;99.90;;;;;;4989500;28;20038;-80
2023/09/27 00:12:52;;;;;;;11.55;7.38;;;15.60;99.90;;;;;;5003298;28;20046;-81
2023/09/27 00:15:18;;;;;;;12.60;7.05;;;15.50;99.90;;;;;;5001396;28;20080;-80
2023/09/27 00:17:44;;;;;;;12.20;6.65;;;15.60;99.90;;;;;;5004161;28;20034;-80
2023/09/27 00:20:13;;;;;;;11.00;7.18;;;15.50;99.90;;;;;;5004078;28;20499;-80
2023/09/27 00:22:39;;;;;;;11.88;7.05;;;15.50;99.90;;;;;;5005013;28;20117;-80
2023/09/27 00:25:08;;;;;;;12.57;7.43;;;15.50;99.90;;;;;;5018419;28;20579;-80
2023/09/27 00:27:35;;;;;;;12.10;7.43;;;15.60;99.90;;;;;;5001677;28;20046;-80
2023/09/27 00:30:01;;;;;;;11.55;7.38;;;15.50;99.90;;;;;;4987612;28;20527;-80
2023/09/27 00:32:27;;;;;;;11.45;6.97;;;15.60;99.90;;;;;;4989057;28;20578;-80
2023/09/27 00:34:52;;;;;;;12.15;7.75;;;15.60;99.90;;;;;;5003219;28;20037;-80
2023/09/27 00:37:18;;;;;;;11.93;7.80;;;15.60;99.90;;;;;;4971043;28;20046;-80
2023/09/27 00:39:44;;;;;;;13.30;7.88;;;15.60;99.90;;;;;;5006197;28;20041;-80
2023/09/27 00:42:10;;;;;;;13.52;8.02;;;15.60;99.90;;;;;;4972730;28;20046;-80
2023/09/27 00:44:36;;;;;;;12.77;7.75;;;15.50;99.90;;;;;;4988332;28;20046;-80
2023/09/27 00:47:04;;;;;;;14.93;7.60;;;15.60;99.90;;;;;;4998903;28;20052;-81
2023/09/27 00:49:30;;;;;;;12.23;7.50;;;15.60;99.90;;;;;;4987790;28;20069;-82
2023/09/27 00:51:57;;;;;;;12.45;7.50;;;15.50;99.90;;;;;;4988915;28;20041;-81
2023/09/27 00:54:23;;;;;;;13.07;8.13;;;15.50;99.90;;;;;;4973037;28;20033;-80
2023/09/27 00:56:51;;;;;;;13.27;8.02;;;15.50;99.90;;;;;;4984783;28;20152;-80
2023/09/27 00:59:18;;;;;;;12.00;7.63;;;15.50;99.90;;;;;;5020635;28;20100;-81
2023/09/27 01:01:45;;;;;;;13.00;8.13;;;15.50;99.90;;;;;;4972860;28;20539;-80
2023/09/27 01:04:13;;;;;;;12.85;8.45;;;15.50;99.90;;;;;;4988220;28;20180;-81
2023/09/27 01:06:40;;;;;;;14.27;8.25;;;15.50;99.90;;;;;;4984206;28;20041;-80
2023/09/27 01:09:06;;;;;;;12.75;7.97;;;15.50;99.90;;;;;;4985178;28;20475;-80
2023/09/27 01:11:33;;;;;;;13.98;8.60;;;15.50;99.90;;;;;;4965506;28;20069;-80
2023/09/27 01:13:59;;;;;;;12.52;7.90;;;15.50;99.90;;;;;;5003061;28;20037;-80
2023/09/27 01:16:25;;;;;;;14.13;8.55;;;15.40;99.90;;;;;;4968796;28;20328;-80
2023/09/27 01:18:50;;;;;;;13.60;8.55;;;15.40;99.90;;;;;;4969000;28;20170;-80
2023/09/27 01:21:19;;;;;;;13.85;8.90;;;15.40;99.90;;;;;;4991433;28;20100;-81
2023/09/27 01:23:49;;;;;;;14.05;8.50;;;15.40;99.90;;;;;;5008098;28;20044;-81
2023/09/27 01:26:16;;;;;;;13.30;8.57;;;15.40;99.90;;;;;;4991325;28;20038;-81
2023/09/27 01:28:46;;;;;;;12.63;8.25;;;15.40;99.90;;;;;;5002667;28;20045;-80
2023/09/27 01:31:12;;;;;;;15.82;9.07;;;15.40;99.90;;;;;;4989511;28;20478;-80
2023/09/27 01:33:39;;;;;;;13.88;9.02;;;15.40;99.90;;;;;;5008398;28;20034;-80
2023/09/27 01:36:05;;;;;;;13.95;9.23;;;15.40;99.90;;;;;;4991690;28;20092;-80
2023/09/27 01:38:31;;;;;;;13.93;9.23;;;15.40;99.90;;;;;;5005902;28;20030;-80
2023/09/27 01:40:57;;;;;;;13.68;8.77;;;15.40;99.90;;;;;;4991090;28;20133;-80
2023/09/27 01:43:23;;;;;;;13.82;9.20;;;15.40;99.90;;;;;;4989092;28;20053;-80
2023/09/27 01:45:49;;;;;;;13.32;9.20;;;15.40;99.90;;;;;;5007078;28;20045;-80
2023/09/27 01:48:14;;;;;;;14.65;9.88;;;15.30;99.90;;;;;;5008149;28;20079;-80
2023/09/27 01:50:41;;;;;;;13.65;9.00;;;15.30;99.90;;;;;;4977064;28;20045;-80
2023/09/27 01:53:07;;;;;;;14.18;9.18;;;15.30;99.90;;;;;;5005090;28;20052;-80
2023/09/27 01:55:33;;;;;;;13.60;8.95;;;15.30;99.90;;;;;;4976369;28;20487;-80
2023/09/27 01:58:00;;;;;;;14.40;9.43;;;15.30;99.90;;;;;;4967643;28;20140;-80
2023/09/27 02:00:26;;;;;;;14.48;9.55;;;15.20;99.90;;;;;;5005331;28;20034;-80
2023/09/27 02:02:55;;;;;;;14.55;9.55;;;15.20;99.90;;;;;;5005005;28;20122;-80
2023/09/27 02:05:22;;;;;;;14.05;8.73;;;15.20;99.90;;;;;;5023001;28;20071;-80
2023/09/27 02:07:48;;;;;;;13.85;9.77;;;15.20;99.90;;;;;;4988993;28;20487;-80
2023/09/27 02:10:14;;;;;;;12.75;9.05;;;15.10;99.90;;;;;;4975217;28;20040;-80
2023/09/27 02:12:40;;;;;;;13.55;9.07;;;15.10;99.90;;;;;;5006797;28;20074;-80
2023/09/27 02:15:07;;;;;;;14.45;8.57;;;15.10;99.90;;;;;;4970999;28;20046;-80
2023/09/27 02:17:35;;;;;;;14.13;9.38;;;15.10;99.90;;;;;;4986952;28;20034;-80
2023/09/27 02:20:06;;;;;;;12.82;8.90;;;15.10;99.90;;;;;;5007381;28;20041;-80
2023/09/27 02:22:32;;;;;;;13.82;9.88;;;15.00;99.90;;;;;;4972072;28;20099;-80
2023/09/27 02:24:57;;;;;;;13.23;9.15;;;15.00;99.90;;;;;;4973465;28;20046;-80
2023/09/27 02:27:23;;;;;;;14.27;9.27;;;15.00;99.90;;;;;;4973324;28;20105;-80
2023/09/27 02:29:49;;;;;;;13.02;9.15;;;15.00;99.90;;;;;;4990820;28;20433;-80
2023/09/27 02:32:16;;;;;;;14.40;9.35;;;15.00;99.90;;;;;;4987270;28;20084;-80
2023/09/27 02:34:42;;;;;;;14.40;9.52;;;15.00;99.90;;;;;;4986090;28;20042;-80
2023/09/27 02:37:08;;;;;;;14.52;9.45;;;14.90;99.90;;;;;;5001591;28;20111;-80
2023/09/27 02:39:34;;;;;;;13.15;9.10;;;14.90;99.90;;;;;;4973518;28;20049;-80
2023/09/27 02:42:00;;;;;;;13.23;9.02;;;14.90;99.90;;;;;;5004951;28;20537;-80
2023/09/27 02:44:26;;;;;;;14.93;10.27;;;14.90;99.90;;;;;;4990799;28;20124;-80
2023/09/27 02:46:53;;;;;;;14.82;9.43;;;14.90;99.90;;;;;;4989891;28;20048;-80
2023/09/27 02:49:19;;;;;;;14.98;10.00;;;14.80;99.90;;;;;;4988521;28;20041;-81
2023/09/27 02:51:49;;;;;;;14.10;9.50;;;14.80;99.90;;;;;;4989282;28;20121;-81
2023/09/27 02:54:14;;;;;;;15.43;9.32;;;14.80;99.90;;;;;;4985650;28;20503;-80
2023/09/27 02:56:43;;;;;;;14.52;9.68;;;14.80;99.90;;;;;;4968637;28;20041;-80
2023/09/27 02:59:12;;;;;;;14.90;10.05;;;14.80;99.90;;;;;;4997764;28;20058;-80
2023/09/27 03:01:40;;;;;;;13.30;9.27;;;14.80;99.90;;;;;;4974669;28;20042;-82
2023/09/27 03:04:11;;;;;;;14.20;9.98;;;14.80;99.90;;;;;;5036461;28;20038;-81
2023/09/27 03:06:37;;;;;;;13.80;10.13;;;14.80;99.90;;;;;;4987081;28;20502;-81
2023/09/27 03:09:08;;;;;;;15.52;9.60;;;14.80;99.90;;;;;;4991798;28;20044;-80
2023/09/27 03:11:34;;;;;;;14.77;9.90;;;14.70;99.90;;;;;;5001870;28;20042;-80
2023/09/27 03:14:01;;;;;;;14.98;9.43;;;14.80;99.90;;;;;;4969660;28;20398;-80
2023/09/27 03:16:27;;;;;;;13.68;9.07;;;14.80;99.90;;;;;;5006948;28;20033;-79
2023/09/27 03:18:54;;;;;;;14.20;9.60;;;14.70;99.90;;;;;;5005980;28;20534;-79
2023/09/27 03:21:21;;;;;;;14.52;9.85;;;14.70;99.90;;;;;;5038103;28;20076;-79
2023/09/27 03:23:47;;;;;;;13.80;9.30;;;14.70;99.90;;;;;;5002602;28;20230;-79
2023/09/27 03:26:13;;;;;;;13.50;9.32;;;14.70;99.90;;;;;;4985500;28;20053;-79
2023/09/27 03:28:38;;;;;;;13.23;9.43;;;14.70;99.90;;;;;;4975719;28;20046;-79
2023/09/27 03:31:05;;;;;;;14.75;9.38;;;14.70;99.90;;;;;;5005506;28;20121;-79
2023/09/27 03:33:31;;;;;;;14.75;9.05;;;14.70;99.90;;;;;;5022904;28;20037;-79
2023/09/27 03:35:57;;;;;;;13.55;9.40;;;14.70;99.90;;;;;;5005353;28;20044;-79
2023/09/27 03:38:23;;;;;;;14.20;9.90;;;14.60;99.90;;;;;;4991850;28;20061;-79
2023/09/27 03:40:51;;;;;;;14.73;9.38;;;14.60;99.90;;;;;;4990360;28;20045;-79
2023/09/27 03:43:17;;;;;;;13.02;9.00;;;14.60;99.90;;;;;;5006434;28;20523;-79
2023/09/27 03:45:43;;;;;;;12.90;8.27;;;14.60;99.90;;;;;;4987284;28;20070;-79
2023/09/27 03:48:08;;;;;;;13.95;9.32;;;14.60;99.90;;;;;;4985537;28;20107;-79
2023/09/27 03:50:34;;;;;;;13.65;9.20;;;14.60;99.90;;;;;;4989788;28;20037;-79
2023/09/27 03:53:00;;;;;;;14.48;9.15;;;14.60;99.90;;;;;;4971721;28;20034;-79
2023/09/27 03:55:27;;;;;;;13.80;9.45;;;14.60;99.90;;;;;;4973219;28;20125;-79
2023/09/27 03:57:53;;;;;;;13.57;9.13;;;14.50;99.90;;;;;;5019267;28;20161;-79
2023/09/27 04:00:19;;;;;;;15.05;9.57;;;14.50;99.90;;;;;;5005132;28;20532;-79
2023/09/27 04:02:46;;;;;;;17.00;9.63;;;14.50;99.90;;;;;;4989850;28;20049;-79
2023/09/27 04:05:13;;;;;;;13.80;9.20;;;14.50;99.90;;;;;;5005668;28;20475;-79
2023/09/27 04:07:39;;;;;;;14.90;9.40;;;14.50;99.90;;;;;;5005012;28;20049;-79
2023/09/27 04:10:07;;;;;;;14.98;9.50;;;14.50;99.90;;;;;;5004750;28;20535;-79
2023/09/27 04:12:34;;;;;;;13.23;8.80;;;14.50;99.90;;;;;;4988582;28;20066;-79
2023/09/27 04:14:59;;;;;;;13.68;8.93;;;14.50;99.90;;;;;;5002433;28;20601;-80
2023/09/27 04:17:25;;;;;;;13.75;9.30;;;14.50;99.90;;;;;;4983739;28;20070;-80
2023/09/27 04:19:52;;;;;;;13.55;9.43;;;14.50;99.90;;;;;;4985807;28;20551;-80
2023/09/27 04:22:18;;;;;;;14.73;8.65;;;14.50;99.90;;;;;;4989074;28;20041;-80
2023/09/27 04:24:44;;;;;;;13.38;8.82;;;14.40;99.90;;;;;;5036390;28;20511;-80
2023/09/27 04:27:10;;;;;;;15.02;9.98;;;14.40;99.90;;;;;;5003281;28;20187;-80
2023/09/27 04:29:36;;;;;;;15.05;10.20;;;14.40;99.90;;;;;;5020904;28;20124;-80
2023/09/27 04:32:01;;;;;;;14.05;9.48;;;14.40;99.90;;;;;;4971557;28;20052;-79
2023/09/27 04:34:28;;;;;;;12.90;9.35;;;14.30;99.90;;;;;;5019238;28;20034;-79
2023/09/27 04:36:54;;;;;;;14.02;9.85;;;14.40;99.90;;;;;;4984972;28;20526;-79
2023/09/27 04:39:20;;;;;;;15.30;10.40;;;14.30;99.90;;;;;;4985808;28;20188;-79
2023/09/27 04:41:46;;;;;;;14.57;10.43;;;14.30;99.90;;;;;;4947608;28;20078;-80
2023/09/27 04:44:15;;;;;;;15.52;10.02;;;14.30;99.90;;;;;;4986067;28;20037;-79
2023/09/27 04:46:41;;;;;;;14.57;10.05;;;14.30;99.90;;;;;;5001918;28;20108;-80
2023/09/27 04:49:07;;;;;;;15.85;10.52;;;14.30;99.90;;;;;;4983551;28;20472;-79
2023/09/27 04:51:33;;;;;;;15.73;10.45;;;14.20;99.90;;;;;;4982311;28;20042;-80
2023/09/27 04:54:02;;;;;;;14.48;10.30;;;14.20;99.90;;;;;;4969826;28;20042;-79
2023/09/27 04:56:29;;;;;;;15.25;10.85;;;14.20;99.90;;;;;;5010798;28;20367;-79
2023/09/27 04:59:08;;;;;;;15.57;11.07;;;14.20;99.90;;;;;;4999939;28;20161;-79
2023/09/27 05:01:34;;;;;;;14.68;11.13;;;14.20;99.90;;;;;;5016744;28;20045;-79
2023/09/27 05:03:59;;;;;;;16.08;11.52;;;14.20;99.90;;;;;;4982288;28;20048;-80
2023/09/27 05:06:25;;;;;;;14.38;10.65;;;14.20;99.90;;;;;;4993806;28;20034;-81
2023/09/27 05:08:51;;;;;;;15.68;10.70;;;14.20;99.90;;;;;;4996737;28;20065;-79
2023/09/27 05:11:20;;;;;;;14.95;11.07;;;14.10;99.90;;;;;;5016535;28;20041;-79
2023/09/27 05:13:49;;;;;;;15.88;11.50;;;14.20;99.90;;;;;;5026154;28;20126;-79
2023/09/27 05:16:14;;;;;;;14.82;11.00;;;14.10;99.90;;;;;;4988428;28;20621;-79
2023/09/27 05:18:43;;;;;;;16.17;11.77;;;14.20;99.90;;;;;;5013061;28;20042;-79
2023/09/27 05:21:09;;;;;;;17.83;12.15;;;14.10;99.90;;;;;;4972612;28;20030;-80
2023/09/27 05:23:35;;;;;;;16.30;11.55;;;14.10;99.90;;;;;;5002883;28;20072;-81
2023/09/27 05:26:01;;;;;;;18.77;11.48;;;14.10;99.90;;;;;;5020766;28;20049;-81
2023/09/27 05:28:28;;;;;;;15.57;12.20;;;14.10;99.90;;;;;;5035604;28;20036;-81
2023/09/27 05:30:54;;;;;;;16.48;11.77;;;14.10;99.90;;;;;;5016879;28;20045;-81
2023/09/27 05:33:20;;;;;;;14.65;11.25;;;14.10;99.90;;;;;;5022047;28;20034;-81
2023/09/27 05:35:50;;;;;;;16.50;11.73;;;14.10;99.90;;;;;;5043595;28;20037;-81
2023/09/27 05:38:16;;;;;;;15.88;12.18;;;14.10;99.90;;;;;;5041527;28;20095;-81
2023/09/27 05:40:42;;;;;;;16.08;12.57;;;14.10;99.90;;;;;;4994397;28;20041;-81
2023/09/27 05:43:08;;;;;;;16.50;11.48;;;14.10;99.90;;;;;;5059673;28;20107;-81
2023/09/27 05:45:33;;;;;;;17.70;12.82;;;14.10;99.90;;;;;;4994284;28;20160;-81
2023/09/27 05:48:00;;;;;;;16.55;12.65;;;14.10;99.90;;;;;;5009448;28;20275;-81
2023/09/27 05:50:25;;;;;;;15.77;11.90;;;14.10;99.90;;;;;;5012628;28;20041;-81
2023/09/27 05:52:51;;;;;;;17.40;12.30;;;14.10;99.90;;;;;;5042435;28;20037;-81
2023/09/27 05:55:17;;;;;;;17.35;12.73;;;14.10;99.90;;;;;;5010386;28;20072;-81
2023/09/27 05:57:44;;;;;;;15.52;11.35;;;14.10;99.90;;;;;;5042414;28;20057;-81
2023/09/27 06:00:26;;;;;;;16.98;12.85;;;14.10;99.90;;;;;;5043238;28;20121;-81
2023/09/27 06:02:52;;;;;;;16.23;11.73;;;14.10;99.90;;;;;;5014167;28;20213;-81
2023/09/27 06:05:18;;;;;;;17.08;12.15;;;14.20;99.90;;;;;;4991665;28;20073;-81
2023/09/27 06:07:44;;;;;;;17.20;12.38;;;14.10;99.90;;;;;;5054603;28;20045;-81
2023/09/27 06:10:10;;;;;;;17.95;12.80;;;14.20;99.90;;;;;;5007303;28;20196;-81
2023/09/27 06:12:36;;;;;;;16.75;12.40;;;14.20;99.90;;;;;;5056355;28;20113;-81
2023/09/27 06:15:01;;;;;;;18.27;12.98;;;14.20;99.90;;;;;;5004249;28;20247;-81
2023/09/27 06:17:27;;;;;;;16.65;11.68;;;14.20;99.90;;;;;;5004556;28;20326;-81
2023/09/27 06:19:53;;;;;;;16.58;12.48;;;14.20;99.90;;;;;;5006930;28;20029;-81
2023/09/27 06:22:22;;;;;;;16.30;12.05;;;14.20;99.90;;;;;;5006664;28;20179;-81
2023/09/27 06:24:48;;;;;;;16.77;12.45;;;14.20;99.90;;;;;;5023352;28;20034;-81
2023/09/27 06:27:16;;;;;;;16.58;12.20;;;14.30;99.90;;;;;;5021310;28;20224;-81
2023/09/27 06:29:42;;;;;;;17.33;12.35;;;14.30;99.90;;;;;;5006626;28;20034;-82
2023/09/27 06:32:07;;;;;;;16.20;12.02;;;14.30;99.90;;;;;;5020010;28;20045;-81
2023/09/27 06:34:35;;;;;;;16.63;12.70;;;14.30;99.90;;;;;;5020325;28;20058;-81
2023/09/27 06:37:01;;;;;;;16.77;12.55;;;14.30;99.90;;;;;;5001472;28;20069;-81
2023/09/27 06:39:26;;;;;;;17.30;12.15;;;14.40;99.90;;;;;;5053504;28;20060;-81
2023/09/27 06:41:52;;;;;;;17.48;11.80;;;14.40;99.90;;;;;;4989954;28;20045;-81
2023/09/27 06:44:18;;;;;;;15.23;11.65;;;14.40;99.90;;;;;;5055770;28;20380;-81
2023/09/27 06:46:45;;;;;;;17.52;12.48;;;14.40;99.90;;;;;;5006320;28;20061;-81
2023/09/27 06:49:12;;;;;;;15.65;11.95;;;14.40;99.90;;;;;;4987510;28;20225;-81
2023/09/27 06:51:38;;;;;;;16.23;12.20;;;14.40;99.90;;;;;;5006210;28;20038;-81
2023/09/27 06:54:05;;;;;;;16.58;12.18;;;14.40;99.90;;;;;;5006341;28;20033;-81
2023/09/27 06:56:31;;;;;;;19.27;12.20;;;14.40;99.90;;;;;;5006268;28;20043;-81
2023/09/27 06:58:57;;;;;;;15.57;12.07;;;14.50;99.90;;;;;;5038968;28;20254;-81
2023/09/27 07:01:24;;;;;;;15.98;11.80;;;14.60;99.90;;;;;;5053178;28;20080;-81
2023/09/27 07:03:50;;;;;;;17.02;12.85;;;14.60;99.90;;;;;;5055495;28;20315;-81
2023/09/27 07:06:17;;;;;;;19.40;13.27;;;14.70;99.90;;;;;;4989744;28;20103;-81
2023/09/27 07:08:46;;;;;;;18.27;13.43;;;14.80;99.90;;;;;;5006103;28;20056;-81
2023/09/27 07:11:13;;;;;;;16.52;12.48;;;14.90;99.90;;;;;;4987866;28;20049;-81
2023/09/27 07:13:39;;;;;;;17.15;12.25;;;15.00;99.90;;;;;;4988929;28;20255;-81
2023/09/27 07:16:29;;;;;;;17.77;13.52;;;15.10;99.90;;;;;;4993423;28;20049;-81
2023/09/27 07:18:59;;;;;;;16.65;12.18;;;15.10;99.90;;;;;;5032579;28;20033;-81
2023/09/27 07:21:25;;;;;;;17.25;12.50;;;15.20;99.90;;;;;;4985066;28;20057;-81
2023/09/27 07:23:52;;;;;;;17.80;12.60;;;15.30;99.90;;;;;;5053631;28;20073;-81
2023/09/27 07:26:18;;;;;;;16.63;12.48;;;15.30;99.90;;;;;;5005417;28;20041;-81
2023/09/27 07:28:47;;;;;;;16.42;12.32;;;15.40;99.90;;;;;;5054277;28;20030;-81
2023/09/27 07:31:14;;;;;;;17.90;13.20;;;15.50;99.90;;;;;;5020492;28;20117;-81
2023/09/27 07:33:40;;;;;;;17.65;12.73;;;15.60;99.90;;;;;;4989033;28;20065;-81
2023/09/27 07:36:08;;;;;;;18.70;12.80;;;15.70;99.90;;;;;;5016310;28;20034;-81
2023/09/27 07:38:35;;;;;;;19.05;14.02;;;15.80;99.90;;;;;;4969880;28;20041;-81
2023/09/27 07:41:01;;;;;;;17.52;13.00;;;15.90;99.90;;;;;;5035328;28;20045;-81
2023/09/27 07:43:28;;;;;;;16.92;12.57;;;15.90;99.90;;;;;;4985580;28;20034;-81
2023/09/27 07:45:54;;;;;;;19.75;12.63;;;16.00;99.90;;;;;;5005987;28;20313;-81
2023/09/27 07:48:21;;;;;;;17.60;12.98;;;16.00;99.90;;;;;;5050643;28;20107;-81
2023/09/27 07:50:47;;;;;;;18.63;13.38;;;15.90;99.90;;;;;;5033206;28;20069;-82
2023/09/27 07:53:13;;;;;;;17.67;12.50;;;16.10;99.90;;;;;;4972094;28;20187;-81
2023/09/27 07:55:46;;;;;;;17.38;11.77;;;16.20;99.90;;;;;;5021611;28;20271;-81
2023/09/27 07:58:13;;;;;;;;;;;16.20;99.90;;;;;;5002922;28;20062;-81
2023/09/27 08:00:43;;;;;;;16.15;10.90;;;16.30;99.90;;;;;;5020363;28;19916;-81
2023/09/27 08:03:10;;;;;;;17.08;11.77;;;16.40;99.90;;;;;;4987977;28;20093;-81
2023/09/27 08:05:44;;;;;;;16.80;12.07;;;16.50;99.90;;;;;;4988768;28;20164;-81
2023/09/27 08:08:11;;;;;;;16.45;12.52;;;16.60;99.90;;;;;;5021887;28;20090;-81
2023/09/27 08:10:43;;;;;;;16.33;12.13;;;16.80;99.90;;;;;;5032369;28;20106;-81
2023/09/27 08:13:10;;;;;;;16.10;11.83;;;16.90;99.90;;;;;;5037623;28;20030;-81
2023/09/27 08:15:36;;;;;;;15.85;11.88;;;17.00;99.90;;;;;;5021528;28;20071;-81
2023/09/27 08:18:02;;;;;;;17.02;12.07;;;17.20;99.90;;;;;;4985567;28;20129;-81
2023/09/27 08:20:28;;;;;;;22.33;13.88;;;17.30;99.90;;;;;;4985460;28;20033;-81
2023/09/27 08:22:54;;;;;;;16.52;12.48;;;17.40;99.90;;;;;;5004155;28;20033;-81
2023/09/27 08:25:21;;;;;;;16.60;12.07;;;17.40;99.90;;;;;;5035723;28;20034;-81
2023/09/27 08:27:50;;;;;;;16.33;11.90;;;17.50;99.90;;;;;;5053337;28;20038;-81
2023/09/27 08:30:16;;;;;;;17.25;12.10;;;17.60;99.90;;;;;;5036988;28;20049;-81
2023/09/27 08:32:42;;;;;;;16.48;11.55;;;17.70;99.90;;;;;;5034448;28;20065;-81
2023/09/27 08:35:09;;;;;;;17.33;12.20;;;17.80;99.90;;;;;;5052950;28;20045;-81
2023/09/27 08:37:35;;;;;;;15.45;11.13;;;17.80;99.90;;;;;;4971227;28;20026;-81
2023/09/27 08:40:03;;;;;;;17.63;11.50;;;17.90;99.90;;;;;;5014641;28;20285;-81
2023/09/27 08:42:32;;;;;;;17.55;12.07;;;18.00;99.90;;;;;;4987299;28;20038;-81
2023/09/27 08:45:00;;;;;;;15.52;10.98;;;18.00;99.90;;;;;;5004793;28;20049;-81
2023/09/27 08:47:25;;;;;;;15.38;11.05;;;18.10;99.90;;;;;;5019476;28;20133;-81
2023/09/27 08:49:51;;;;;;;17.50;11.80;;;18.20;99.90;;;;;;5053758;28;20078;-81
2023/09/27 08:52:17;;;;;;;16.30;11.70;;;18.30;99.90;;;;;;5051128;28;20041;-81
2023/09/27 08:54:43;;;;;;;16.15;11.15;;;18.30;99.90;;;;;;5004133;28;20041;-81
2023/09/27 08:57:10;;;;;;;15.40;10.50;;;18.40;99.90;;;;;;4987084;28;20021;-82
2023/09/27 08:59:38;;;;;;;15.80;11.18;;;18.50;99.90;;;;;;5004219;28;20044;-82
2023/09/27 09:02:05;;;;;;;16.52;10.88;;;18.50;99.90;;;;;;5019966;28;20045;-81
2023/09/27 09:04:34;;;;;;;17.35;11.57;;;18.60;99.90;;;;;;5012640;28;20085;-81
2023/09/27 09:07:02;;;;;;;15.98;10.88;;;18.70;99.90;;;;;;5003925;28;20033;-81
2023/09/27 09:09:30;;;;;;;15.88;10.48;;;18.90;99.90;;;;;;5003400;28;20080;-83
2023/09/27 09:11:58;;;;;;;14.25;9.93;;;18.90;99.90;;;;;;5004000;28;20259;-81
2023/09/27 09:14:49;;;;;;;16.45;10.35;;;19.00;99.90;;;;;;5050275;28;20025;-82
2023/09/27 09:17:17;;;;;;;17.92;10.63;;;19.10;99.90;;;;;;5004104;28;20333;-82
2023/09/27 09:19:43;;;;;;;16.70;10.10;;;19.30;99.90;;;;;;4996908;28;20271;-82
2023/09/27 09:22:11;;;;;;;15.50;9.43;;;19.30;99.90;;;;;;5019818;28;20291;-82
2023/09/27 09:24:42;;;;;;;15.45;9.23;;;19.30;99.90;;;;;;5003734;28;20105;-82
2023/09/27 09:27:14;;;;;;;14.23;8.63;;;19.40;99.90;;;;;;5000737;28;20046;-82
2023/09/27 09:29:46;;;;;;;11.60;8.02;;;19.50;99.90;;;;;;4997339;28;20057;-82
2023/09/27 09:32:18;;;;;;;14.20;8.50;;;19.50;99.90;;;;;;5045786;28;20034;-82
2023/09/27 09:34:45;;;;;;;13.02;8.48;;;19.60;99.90;;;;;;5021302;28;20042;-82
2023/09/27 09:37:22;;;;;;;13.73;8.07;;;19.70;99.90;;;;;;5017149;28;20315;-82
2023/09/27 09:39:50;;;;;;;11.68;7.57;;;19.70;99.90;;;;;;5053277;28;20033;-81
2023/09/27 09:42:33;;;;;;;12.95;7.28;;;19.70;99.90;;;;;;5019445;28;20094;-82
2023/09/27 09:45:06;;;;;;;12.75;7.57;;;19.90;99.90;;;;;;5007269;28;20097;-81
2023/09/27 09:47:37;;;;;;;12.43;6.60;;;20.00;99.90;;;;;;5008001;28;20052;-82
2023/09/27 09:50:08;;;;;;;11.15;5.97;;;20.10;99.90;;;;;;5057155;28;20125;-82
2023/09/27 09:52:38;;;;;;;10.80;4.60;;;19.40;99.90;;;;;;5055382;28;20029;-81
2023/09/27 09:55:07;;;;;;;15.02;7.22;;;20.20;99.90;;;;;;5023705;28;20037;-81
2023/09/27 09:57:35;;;;;;;11.55;5.75;;;20.30;99.90;;;;;;4991605;28;20072;-81
2023/09/27 10:00:25;;;;;;;11.25;5.72;;;20.30;99.90;;;;;;5023503;28;20246;-82
2023/09/27 10:03:04;;;;;;;10.55;5.45;;;20.30;99.90;;;;;;5022678;28;20058;-82
2023/09/27 10:05:38;;;;;;;13.00;5.28;;;20.60;99.90;;;;;;4998678;28;20034;-82
2023/09/27 10:08:05;;;;;;;9.70;4.03;;;20.30;99.90;;;;;;4992701;28;20069;-82
2023/09/27 10:10:32;;;;;;;11.40;3.85;;;20.30;99.90;;;;;;5007242;28;20093;-82
2023/09/27 10:12:59;;;;;;;9.10;3.53;;;20.40;99.90;;;;;;5039007;28;20040;-82
2023/09/27 10:15:26;;;;;;;10.40;4.18;;;20.50;99.90;;;;;;5056375;28;20188;-82
2023/09/27 10:17:52;;;;;;;9.15;4.30;;;20.60;99.90;;;;;;5019772;28;20060;-82
2023/09/27 10:20:22;;;;;;;11.05;4.70;;;20.70;99.90;;;;;;4987305;28;20292;-82
2023/09/27 10:22:50;;;;;;;9.65;4.05;;;20.80;99.90;;;;;;5019159;28;20175;-82
2023/09/27 10:25:28;;;;;;;11.60;5.15;;;20.80;99.90;;;;;;5017648;28;20189;-82
2023/09/27 10:28:11;;;;;;;9.52;4.32;;;20.80;99.90;;;;;;5003633;28;20112;-82
2023/09/27 10:30:40;;;;;;;9.80;4.15;;;20.80;99.90;;;;;;5006757;28;20045;-82
2023/09/27 10:33:15;;;;;;;9.35;4.47;;;20.80;99.90;;;;;;5056486;28;20049;-82
2023/09/27 10:36:02;;;;;;;10.38;4.50;;;20.80;99.90;;;;;;5006547;28;20038;-82
2023/09/27 10:38:57;;;;;;;11.48;4.70;;;20.80;99.90;;;;;;5047334;28;20352;-82
2023/09/27 10:41:32;;;;;;;10.05;4.38;;;20.80;99.90;;;;;;5002000;28;20358;-82
2023/09/27 10:44:02;;;;;;;12.07;4.25;;;20.70;99.90;;;;;;5023200;28;20030;-82
2023/09/27 10:46:48;;;;;;;9.18;4.15;;;20.70;99.90;;;;;;5050729;28;20085;-82
2023/09/27 10:49:21;;;;;;;10.85;3.95;;;20.70;99.90;;;;;;5004605;28;20377;-82
2023/09/27 10:51:48;;;;;;;8.90;3.70;;;20.60;99.90;;;;;;5021537;28;20517;-82
2023/09/27 10:54:14;;;;;;;10.65;4.38;;;20.60;99.90;;;;;;5039464;28;20199;-83
2023/09/27 10:56:44;;;;;;;10.23;4.90;;;20.60;99.90;;;;;;5018926;28;20106;-82
2023/09/27 10:59:11;;;;;;;11.43;4.85;;;20.60;99.90;;;;;;5000587;28;20109;-82
2023/09/27 11:01:43;;;;;;;10.02;5.13;;;20.60;99.90;;;;;;5023919;28;20099;-82
2023/09/27 11:04:12;;;;;;;9.73;5.13;;;20.60;99.90;;;;;;5039125;28;20171;-82
2023/09/27 11:06:38;;;;;;;10.82;5.20;;;20.70;99.90;;;;;;5018630;28;20030;-82
2023/09/27 11:09:06;;;;;;;9.15;4.18;;;20.60;99.90;;;;;;4999665;28;20271;-82
2023/09/27 11:11:33;;;;;;;9.50;4.28;;;20.60;99.90;;;;;;5020002;28;20057;-82
2023/09/27 11:13:59;;;;;;;9.38;3.90;;;20.60;99.90;;;;;;4990168;28;20093;-82
2023/09/27 11:16:25;;;;;;;10.00;3.85;;;20.60;99.90;;;;;;4989117;28;20076;-82
2023/09/27 11:18:56;;;;;;;9.07;4.20;;;20.60;99.90;;;;;;5006016;28;20310;-82
2023/09/27 11:21:28;;;;;;;9.30;3.97;;;20.50;99.90;;;;;;5034942;28;20057;-82
2023/09/27 11:24:03;;;;;;;;;;;20.50;99.90;;;;;;5022516;28;20164;-82
2023/09/27 11:26:31;;;;;;;9.48;3.90;;;20.50;99.90;;;;;;4989222;28;19910;-82
2023/09/27 11:29:01;;;;;;;10.20;4.43;;;20.50;99.90;;;;;;5005495;28;20085;-82
2023/09/27 11:31:31;;;;;;;9.75;4.53;;;20.50;99.90;;;;;;5054302;28;20077;-82
2023/09/27 11:34:19;;;;;;;10.05;4.38;;;20.50;99.90;;;;;;5015856;28;20298;-82
2023/09/27 11:36:46;;;;;;;10.00;4.35;;;20.50;99.90;;;;;;5054797;28;20187;-83
2023/09/27 11:39:16;;;;;;;9.02;4.88;;;20.40;99.90;;;;;;5004843;28;20041;-82
2023/09/27 11:41:46;;;;;;;9.88;4.97;;;20.40;99.90;;;;;;5038125;28;20054;-83
2023/09/27 11:44:20;;;;;;;9.82;4.93;;;20.50;99.90;;;;;;4990422;28;20042;-83
2023/09/27 11:46:47;;;;;;;10.70;5.63;;;20.50;99.90;;;;;;5005600;28;20179;-82
2023/09/27 11:49:13;;;;;;;12.10;5.60;;;20.50;99.90;;;;;;5004504;28;20029;-82
2023/09/27 11:51:39;;;;;;;11.27;5.63;;;20.50;99.90;;;;;;5054333;28;20033;-82
2023/09/27 11:54:05;;;;;;;12.32;5.57;;;20.60;99.90;;;;;;5051256;28;20034;-82
2023/09/27 11:56:36;;;;;;;10.18;5.13;;;20.70;99.90;;;;;;5021479;28;20026;-82
2023/09/27 11:59:03;;;;;;;11.95;6.30;;;20.70;99.90;;;;;;5020377;28;20077;-82
2023/09/27 12:01:29;;;;;;;10.13;5.80;;;20.80;99.90;;;;;;5021043;28;20030;-82
2023/09/27 12:04:00;;;;;;;12.45;6.68;;;20.90;99.90;;;;;;5020084;28;20022;-82
2023/09/27 12:06:28;;;;;;;13.85;6.43;;;20.90;99.90;;;;;;5021312;28;20110;-83
2023/09/27 12:08:54;;;;;;;12.40;6.38;;;21.00;99.90;;;;;;5020878;28;20076;-82
2023/09/27 12:11:20;;;;;;;12.18;6.55;;;21.00;99.90;;;;;;5004846;28;20259;-83
2023/09/27 12:13:46;;;;;;;12.00;6.95;;;21.00;99.90;;;;;;5037310;28;20219;-82
2023/09/27 12:16:12;;;;;;;12.45;6.57;;;21.00;99.90;;;;;;5003766;28;20104;-81
2023/09/27 12:18:37;;;;;;;12.57;6.95;;;21.00;99.90;;;;;;5037013;28;20251;-82
2023/09/27 12:21:03;;;;;;;12.63;7.22;;;21.10;99.90;;;;;;5046840;28;20030;-82
2023/09/27 12:23:30;;;;;;;12.40;6.70;;;21.20;99.90;;;;;;4974037;28;20263;-82
2023/09/27 12:25:57;;;;;;;11.10;6.18;;;21.20;99.90;;;;;;5006186;28;20087;-82
2023/09/27 12:28:22;;;;;;;10.80;6.13;;;21.30;99.90;;;;;;4988631;28;20157;-82
2023/09/27 12:30:49;;;;;;;11.02;6.50;;;20.40;99.90;;;;;;5031149;28;20118;-82
2023/09/27 12:33:15;;;;;;;11.10;6.28;;;21.30;99.90;;;;;;5001019;28;20053;-82
2023/09/27 12:35:46;;;;;;;10.98;5.88;;;21.40;99.90;;;;;;4993908;28;20088;-82